sensor_id;sensor_type;location;lat;lon;timestamp;temperature;humidity
2577;DHT22;1298;51.252;6.802;2023-04-06T00:01:41;5.10;99.90
2577;DHT22;1298;51.252;6.802;2023-04-06T00:05:06;5.10;99.90
2577;DHT22;1298;51.252;6.802;2023-04-06T00:07:57;5.10;99.90
2577;DHT22;1298;51.252;6.802;2023-04-06T00:11:00;5.20;99.90
2577;DHT22;1298;51.252;6.802;2023-04-06T00:13:50;5.10;99.90
2577;DHT22;1298;51.252;6.802;2023-04-06T00:17:01;5.10;99.90
2577;DHT22;1298;51.252;6.802;2023-04-06T00:20:05;5.10;99.90
2577;DHT22;1298;51.252;6.802;2023-04-06T00:22:52;5.10;99.90
2577;DHT22;1298;51.252;6.802;2023-04-06T00:26:44;5.10;99.90
2577;DHT22;1298;51.252;6.802;2023-04-06T00:29:57;5.00;99.90
2577;DHT22;1298;51.252;6.802;2023-04-06T00:32:43;4.90;99.90
2577;DHT22;1298;51.252;6.802;2023-04-06T00:35:43;4.90;99.90
2577;DHT22;1298;51.252;6.802;2023-04-06T00:39:07;4.80;99.90
2577;DHT22;1298;51.252;6.802;2023-04-06T00:42:26;4.80;99.90
2577;DHT22;1298;51.252;6.802;2023-04-06T00:45:18;4.70;99.90
2577;DHT22;1298;51.252;6.802;2023-04-06T00:48:19;4.70;99.90
2577;DHT22;1298;51.252;6.802;2023-04-06T00:51:31;4.70;99.90
2577;DHT22;1298;51.252;6.802;2023-04-06T00:54:18;4.60;99.90
2577;DHT22;1298;51.252;6.802;2023-04-06T00:57:11;4.60;99.90
2577;DHT22;1298;51.252;6.802;2023-04-06T01:00:04;4.70;99.90
2577;DHT22;1298;51.252;6.802;2023-04-06T01:02:53;4.70;99.90
2577;DHT22;1298;51.252;6.802;2023-04-06T01:05:43;4.60;99.90
2577;DHT22;1298;51.252;6.802;2023-04-06T01:08:29;4.60;99.90
2577;DHT22;1298;51.252;6.802;2023-04-06T01:11:21;4.60;99.90
2577;DHT22;1298;51.252;6.802;2023-04-06T01:14:33;4.50;99.90
2577;DHT22;1298;51.252;6.802;2023-04-06T01:17:21;4.40;99.90
2577;DHT22;1298;51.252;6.802;2023-04-06T01:20:43;4.50;99.90
2577;DHT22;1298;51.252;6.802;2023-04-06T01:23:35;4.50;99.90
2577;DHT22;1298;51.252;6.802;2023-04-06T01:26:33;4.40;99.90
2577;DHT22;1298;51.252;6.802;2023-04-06T01:29:30;4.40;99.90
2577;DHT22;1298;51.252;6.802;2023-04-06T01:33:03;4.30;99.90
2577;DHT22;1298;51.252;6.802;2023-04-06T01:36:02;4.20;99.90
2577;DHT22;1298;51.252;6.802;2023-04-06T01:39:08;4.20;99.90
2577;DHT22;1298;51.252;6.802;2023-04-06T01:42:10;4.20;99.90
2577;DHT22;1298;51.252;6.802;2023-04-06T01:45:18;4.20;99.90
2577;DHT22;1298;51.252;6.802;2023-04-06T01:48:58;4.20;99.90
2577;DHT22;1298;51.252;6.802;2023-04-06T01:51:50;4.20;99.90
2577;DHT22;1298;51.252;6.802;2023-04-06T01:54:51;4.20;99.90
2577;DHT22;1298;51.252;6.802;2023-04-06T01:57:44;4.20;99.90
2577;DHT22;1298;51.252;6.802;2023-04-06T02:01:35;4.10;99.90
2577;DHT22;1298;51.252;6.802;2023-04-06T02:04:29;4.10;99.90
2577;DHT22;1298;51.252;6.802;2023-04-06T02:07:41;4.10;99.90
2577;DHT22;1298;51.252;6.802;2023-04-06T02:10:30;4.10;99.90
2577;DHT22;1298;51.252;6.802;2023-04-06T02:13:17;4.00;99.90
2577;DHT22;1298;51.252;6.802;2023-04-06T02:16:19;4.00;99.90
2577;DHT22;1298;51.252;6.802;2023-04-06T02:19:20;3.90;99.90
2577;DHT22;1298;51.252;6.802;2023-04-06T02:22:31;3.80;99.90
2577;DHT22;1298;51.252;6.802;2023-04-06T02:25:22;3.80;99.90
2577;DHT22;1298;51.252;6.802;2023-04-06T02:28:22;3.80;99.90
2577;DHT22;1298;51.252;6.802;2023-04-06T02:31:15;3.70;99.90
2577;DHT22;1298;51.252;6.802;2023-04-06T02:34:08;3.60;99.90
2577;DHT22;1298;51.252;6.802;2023-04-06T02:37:09;3.70;99.90
2577;DHT22;1298;51.252;6.802;2023-04-06T02:39:58;3.70;99.90
2577;DHT22;1298;51.252;6.802;2023-04-06T02:43:18;3.70;99.90
2577;DHT22;1298;51.252;6.802;2023-04-06T02:46:48;3.70;99.90
2577;DHT22;1298;51.252;6.802;2023-04-06T02:49:48;3.70;99.90
2577;DHT22;1298;51.252;6.802;2023-04-06T02:52:49;3.80;99.90
2577;DHT22;1298;51.252;6.802;2023-04-06T02:56:30;3.70;99.90
2577;DHT22;1298;51.252;6.802;2023-04-06T02:59:27;3.70;99.90
2577;DHT22;1298;51.252;6.802;2023-04-06T03:02:30;3.70;99.90
2577;DHT22;1298;51.252;6.802;2023-04-06T03:07:06;3.60;99.90
2577;DHT22;1298;51.252;6.802;2023-04-06T03:10:10;3.60;99.90
2577;DHT22;1298;51.252;6.802;2023-04-06T03:13:10;3.60;99.90
2577;DHT22;1298;51.252;6.802;2023-04-06T03:16:25;3.60;99.90
2577;DHT22;1298;51.252;6.802;2023-04-06T03:19:49;3.70;99.90
2577;DHT22;1298;51.252;6.802;2023-04-06T03:22:50;3.80;99.90
2577;DHT22;1298;51.252;6.802;2023-04-06T03:25:45;3.80;99.90
2577;DHT22;1298;51.252;6.802;2023-04-06T03:28:34;3.70;99.90
2577;DHT22;1298;51.252;6.802;2023-04-06T03:31:21;3.70;99.90
2577;DHT22;1298;51.252;6.802;2023-04-06T03:34:13;3.80;99.90
2577;DHT22;1298;51.252;6.802;2023-04-06T03:37:08;3.70;99.90
2577;DHT22;1298;51.252;6.802;2023-04-06T03:41:24;3.70;99.90
2577;DHT22;1298;51.252;6.802;2023-04-06T03:44:14;3.70;99.90
2577;DHT22;1298;51.252;6.802;2023-04-06T03:48:08;3.60;99.90
2577;DHT22;1298;51.252;6.802;2023-04-06T03:52:59;3.70;99.90
2577;DHT22;1298;51.252;6.802;2023-04-06T03:55:52;3.80;99.90
2577;DHT22;1298;51.252;6.802;2023-04-06T03:59:33;3.80;99.90
2577;DHT22;1298;51.252;6.802;2023-04-06T04:02:28;3.70;99.90
2577;DHT22;1298;51.252;6.802;2023-04-06T04:05:30;3.60;99.90
2577;DHT22;1298;51.252;6.802;2023-04-06T04:09:54;3.60;99.90
2577;DHT22;1298;51.252;6.802;2023-04-06T04:13:36;3.70;99.90
2577;DHT22;1298;51.252;6.802;2023-04-06T04:18:00;3.70;99.90
2577;DHT22;1298;51.252;6.802;2023-04-06T04:21:19;3.80;99.90
2577;DHT22;1298;51.252;6.802;2023-04-06T04:24:45;3.70;99.90
2577;DHT22;1298;51.252;6.802;2023-04-06T04:29:01;3.80;99.90
2577;DHT22;1298;51.252;6.802;2023-04-06T04:32:20;3.80;99.90
2577;DHT22;1298;51.252;6.802;2023-04-06T04:35:21;3.70;99.90
2577;DHT22;1298;51.252;6.802;2023-04-06T04:38:45;3.60;99.90
2577;DHT22;1298;51.252;6.802;2023-04-06T04:41:55;3.60;99.90
2577;DHT22;1298;51.252;6.802;2023-04-06T04:46:04;3.60;99.90
2577;DHT22;1298;51.252;6.802;2023-04-06T04:49:00;3.60;99.90
2577;DHT22;1298;51.252;6.802;2023-04-06T04:52:12;3.60;99.90
2577;DHT22;1298;51.252;6.802;2023-04-06T04:55:11;3.60;99.90
2577;DHT22;1298;51.252;6.802;2023-04-06T04:58:00;3.70;99.90
2577;DHT22;1298;51.252;6.802;2023-04-06T05:01:51;3.80;99.90
2577;DHT22;1298;51.252;6.802;2023-04-06T05:05:02;3.80;99.90
2577;DHT22;1298;51.252;6.802;2023-04-06T05:07:50;3.80;99.90
2577;DHT22;1298;51.252;6.802;2023-04-06T05:10:56;3.80;99.90
2577;DHT22;1298;51.252;6.802;2023-04-06T05:17:20;3.80;99.90
2577;DHT22;1298;51.252;6.802;2023-04-06T05:20:22;3.90;99.90
2577;DHT22;1298;51.252;6.802;2023-04-06T05:23:23;3.90;99.90
2577;DHT22;1298;51.252;6.802;2023-04-06T05:26:20;4.00;99.90
2577;DHT22;1298;51.252;6.802;2023-04-06T05:29:07;4.00;99.90
2577;DHT22;1298;51.252;6.802;2023-04-06T05:32:17;4.00;99.90
2577;DHT22;1298;51.252;6.802;2023-04-06T05:35:08;4.10;99.90
2577;DHT22;1298;51.252;6.802;2023-04-06T05:38:09;4.10;99.90
2577;DHT22;1298;51.252;6.802;2023-04-06T05:42:01;4.20;99.90
2577;DHT22;1298;51.252;6.802;2023-04-06T05:44:57;4.30;99.90
2577;DHT22;1298;51.252;6.802;2023-04-06T05:47:59;4.30;99.90
2577;DHT22;1298;51.252;6.802;2023-04-06T05:51:02;4.30;99.90
2577;DHT22;1298;51.252;6.802;2023-04-06T05:54:11;4.30;99.90
2577;DHT22;1298;51.252;6.802;2023-04-06T05:56:58;4.40;99.90
2577;DHT22;1298;51.252;6.802;2023-04-06T06:00:10;4.40;99.90
2577;DHT22;1298;51.252;6.802;2023-04-06T06:02:57;4.40;99.90
2577;DHT22;1298;51.252;6.802;2023-04-06T06:05:48;4.50;99.90
2577;DHT22;1298;51.252;6.802;2023-04-06T06:08:45;4.50;99.90
2577;DHT22;1298;51.252;6.802;2023-04-06T06:11:42;4.50;99.90
2577;DHT22;1298;51.252;6.802;2023-04-06T06:15:07;4.50;99.90
2577;DHT22;1298;51.252;6.802;2023-04-06T06:18:07;4.60;99.90
2577;DHT22;1298;51.252;6.802;2023-04-06T06:20:54;4.60;99.90
2577;DHT22;1298;51.252;6.802;2023-04-06T06:24:37;4.60;99.90
2577;DHT22;1298;51.252;6.802;2023-04-06T06:28:32;4.70;99.90
2577;DHT22;1298;51.252;6.802;2023-04-06T06:31:42;4.80;99.90
2577;DHT22;1298;51.252;6.802;2023-04-06T06:34:42;4.80;99.90
2577;DHT22;1298;51.252;6.802;2023-04-06T06:37:31;4.90;99.90
2577;DHT22;1298;51.252;6.802;2023-04-06T06:40:34;5.00;99.90
2577;DHT22;1298;51.252;6.802;2023-04-06T06:44:09;5.20;99.90
2577;DHT22;1298;51.252;6.802;2023-04-06T06:47:26;5.30;99.90
2577;DHT22;1298;51.252;6.802;2023-04-06T06:50:21;5.50;99.90
2577;DHT22;1298;51.252;6.802;2023-04-06T06:53:35;5.60;99.90
2577;DHT22;1298;51.252;6.802;2023-04-06T06:56:28;5.90;99.90
2577;DHT22;1298;51.252;6.802;2023-04-06T06:59:23;6.00;99.90
2577;DHT22;1298;51.252;6.802;2023-04-06T07:02:22;6.10;99.90
2577;DHT22;1298;51.252;6.802;2023-04-06T07:05:09;6.20;99.90
2577;DHT22;1298;51.252;6.802;2023-04-06T07:08:15;6.40;99.90
2577;DHT22;1298;51.252;6.802;2023-04-06T07:13:45;6.50;99.90
2577;DHT22;1298;51.252;6.802;2023-04-06T07:16:37;6.70;99.90
2577;DHT22;1298;51.252;6.802;2023-04-06T07:19:31;6.90;99.90
2577;DHT22;1298;51.252;6.802;2023-04-06T07:23:56;7.00;99.90
2577;DHT22;1298;51.252;6.802;2023-04-06T07:27:29;7.20;99.90
2577;DHT22;1298;51.252;6.802;2023-04-06T07:30:39;7.30;99.90
2577;DHT22;1298;51.252;6.802;2023-04-06T07:33:57;7.60;99.90
2577;DHT22;1298;51.252;6.802;2023-04-06T07:37:33;7.90;99.90
2577;DHT22;1298;51.252;6.802;2023-04-06T07:40:33;7.90;99.90
2577;DHT22;1298;51.252;6.802;2023-04-06T07:43:57;7.90;99.90
2577;DHT22;1298;51.252;6.802;2023-04-06T07:46:50;8.00;99.90
2577;DHT22;1298;51.252;6.802;2023-04-06T07:49:44;8.20;99.90
2577;DHT22;1298;51.252;6.802;2023-04-06T07:53:19;8.40;99.90
2577;DHT22;1298;51.252;6.802;2023-04-06T07:56:21;8.60;99.90
2577;DHT22;1298;51.252;6.802;2023-04-06T07:59:21;8.80;99.90
2577;DHT22;1298;51.252;6.802;2023-04-06T08:03:30;9.00;99.90
2577;DHT22;1298;51.252;6.802;2023-04-06T08:06:28;9.10;99.90
2577;DHT22;1298;51.252;6.802;2023-04-06T08:10:00;9.10;99.90
2577;DHT22;1298;51.252;6.802;2023-04-06T08:12:56;9.20;99.90
2577;DHT22;1298;51.252;6.802;2023-04-06T08:15:55;9.10;99.90
2577;DHT22;1298;51.252;6.802;2023-04-06T08:18:45;9.10;99.90
2577;DHT22;1298;51.252;6.802;2023-04-06T08:21:38;9.20;99.90
2577;DHT22;1298;51.252;6.802;2023-04-06T08:24:26;9.20;99.90
2577;DHT22;1298;51.252;6.802;2023-04-06T08:27:17;9.30;99.90
2577;DHT22;1298;51.252;6.802;2023-04-06T08:30:06;9.40;99.90
2577;DHT22;1298;51.252;6.802;2023-04-06T08:32:57;9.60;99.90
2577;DHT22;1298;51.252;6.802;2023-04-06T08:35:47;9.70;99.90
2577;DHT22;1298;51.252;6.802;2023-04-06T08:38:34;9.80;99.90
2577;DHT22;1298;51.252;6.802;2023-04-06T08:41:27;9.80;99.90
2577;DHT22;1298;51.252;6.802;2023-04-06T08:44:12;10.00;99.90
2577;DHT22;1298;51.252;6.802;2023-04-06T08:47:12;10.20;99.90
2577;DHT22;1298;51.252;6.802;2023-04-06T08:50:10;10.30;99.90
2577;DHT22;1298;51.252;6.802;2023-04-06T08:53:13;10.40;99.90
2577;DHT22;1298;51.252;6.802;2023-04-06T08:56:05;10.40;99.90
2577;DHT22;1298;51.252;6.802;2023-04-06T08:59:01;10.60;99.90
2577;DHT22;1298;51.252;6.802;2023-04-06T09:01:49;10.70;99.90
2577;DHT22;1298;51.252;6.802;2023-04-06T09:04:54;10.80;99.90
2577;DHT22;1298;51.252;6.802;2023-04-06T09:07:40;11.00;99.90
2577;DHT22;1298;51.252;6.802;2023-04-06T09:10:35;11.00;99.90
2577;DHT22;1298;51.252;6.802;2023-04-06T09:13:45;11.20;99.90
2577;DHT22;1298;51.252;6.802;2023-04-06T09:16:38;11.40;99.90
2577;DHT22;1298;51.252;6.802;2023-04-06T09:19:30;11.40;99.90
2577;DHT22;1298;51.252;6.802;2023-04-06T09:22:34;11.60;99.90
2577;DHT22;1298;51.252;6.802;2023-04-06T09:25:20;11.80;99.90
2577;DHT22;1298;51.252;6.802;2023-04-06T09:28:09;12.00;99.90
2577;DHT22;1298;51.252;6.802;2023-04-06T09:30:54;12.10;99.90
2577;DHT22;1298;51.252;6.802;2023-04-06T09:33:40;12.20;99.90
2577;DHT22;1298;51.252;6.802;2023-04-06T09:36:34;12.30;99.90
2577;DHT22;1298;51.252;6.802;2023-04-06T09:39:23;12.30;99.90
2577;DHT22;1298;51.252;6.802;2023-04-06T09:42:22;12.30;99.90
2577;DHT22;1298;51.252;6.802;2023-04-06T09:45:12;12.40;99.90
2577;DHT22;1298;51.252;6.802;2023-04-06T09:48:05;12.50;99.90
2577;DHT22;1298;51.252;6.802;2023-04-06T09:50:53;12.30;99.90
2577;DHT22;1298;51.252;6.802;2023-04-06T09:53:42;12.50;99.90
2577;DHT22;1298;51.252;6.802;2023-04-06T09:56:31;12.70;99.90
2577;DHT22;1298;51.252;6.802;2023-04-06T09:59:21;12.80;99.90
2577;DHT22;1298;51.252;6.802;2023-04-06T10:02:12;13.00;99.90
2577;DHT22;1298;51.252;6.802;2023-04-06T10:05:02;13.10;99.90
2577;DHT22;1298;51.252;6.802;2023-04-06T10:07:50;13.40;99.90
2577;DHT22;1298;51.252;6.802;2023-04-06T10:10:40;13.40;99.90
2577;DHT22;1298;51.252;6.802;2023-04-06T10:13:25;13.50;99.90
2577;DHT22;1298;51.252;6.802;2023-04-06T10:16:11;13.50;99.90
2577;DHT22;1298;51.252;6.802;2023-04-06T10:19:12;13.50;99.90
2577;DHT22;1298;51.252;6.802;2023-04-06T10:21:58;13.70;99.90
2577;DHT22;1298;51.252;6.802;2023-04-06T10:24:50;13.70;99.90
2577;DHT22;1298;51.252;6.802;2023-04-06T10:27:35;13.80;99.90
2577;DHT22;1298;51.252;6.802;2023-04-06T10:30:21;13.60;99.90
2577;DHT22;1298;51.252;6.802;2023-04-06T10:33:12;13.50;99.90
2577;DHT22;1298;51.252;6.802;2023-04-06T10:36:08;13.50;99.90
2577;DHT22;1298;51.252;6.802;2023-04-06T10:38:56;13.50;99.90
2577;DHT22;1298;51.252;6.802;2023-04-06T10:41:42;13.50;99.90
2577;DHT22;1298;51.252;6.802;2023-04-06T10:44:31;13.50;99.90
2577;DHT22;1298;51.252;6.802;2023-04-06T10:47:27;13.40;99.90
2577;DHT22;1298;51.252;6.802;2023-04-06T10:50:14;13.60;99.90
2577;DHT22;1298;51.252;6.802;2023-04-06T10:53:02;13.70;99.90
2577;DHT22;1298;51.252;6.802;2023-04-06T10:55:49;13.70;99.90
2577;DHT22;1298;51.252;6.802;2023-04-06T10:58:34;13.70;99.90
2577;DHT22;1298;51.252;6.802;2023-04-06T11:01:25;13.80;99.90
2577;DHT22;1298;51.252;6.802;2023-04-06T11:04:15;13.80;99.90
2577;DHT22;1298;51.252;6.802;2023-04-06T11:07:04;13.80;99.90
2577;DHT22;1298;51.252;6.802;2023-04-06T11:09:51;14.00;99.90
2577;DHT22;1298;51.252;6.802;2023-04-06T11:12:36;14.00;99.90
2577;DHT22;1298;51.252;6.802;2023-04-06T11:15:22;14.00;99.90
2577;DHT22;1298;51.252;6.802;2023-04-06T11:18:08;14.10;99.90
2577;DHT22;1298;51.252;6.802;2023-04-06T11:20:55;14.20;99.90
2577;DHT22;1298;51.252;6.802;2023-04-06T11:23:41;13.80;99.90
2577;DHT22;1298;51.252;6.802;2023-04-06T11:26:39;13.30;99.90
2577;DHT22;1298;51.252;6.802;2023-04-06T11:29:29;12.90;99.90
2577;DHT22;1298;51.252;6.802;2023-04-06T11:32:22;12.80;99.90
2577;DHT22;1298;51.252;6.802;2023-04-06T11:35:11;12.70;99.90
2577;DHT22;1298;51.252;6.802;2023-04-06T11:38:02;12.80;99.90
2577;DHT22;1298;51.252;6.802;2023-04-06T11:40:52;12.80;99.90
2577;DHT22;1298;51.252;6.802;2023-04-06T11:43:46;12.70;99.90
2577;DHT22;1298;51.252;6.802;2023-04-06T11:46:34;12.60;99.90
2577;DHT22;1298;51.252;6.802;2023-04-06T11:49:20;12.70;99.90
2577;DHT22;1298;51.252;6.802;2023-04-06T11:52:39;12.80;99.90
2577;DHT22;1298;51.252;6.802;2023-04-06T11:55:36;12.70;99.90
2577;DHT22;1298;51.252;6.802;2023-04-06T11:58:24;12.80;99.90
2577;DHT22;1298;51.252;6.802;2023-04-06T12:01:17;13.10;99.90
2577;DHT22;1298;51.252;6.802;2023-04-06T12:04:02;13.60;99.90
2577;DHT22;1298;51.252;6.802;2023-04-06T12:06:51;13.90;99.90
2577;DHT22;1298;51.252;6.802;2023-04-06T12:09:36;13.60;99.90
2577;DHT22;1298;51.252;6.802;2023-04-06T12:12:24;13.30;99.90
2577;DHT22;1298;51.252;6.802;2023-04-06T12:15:13;13.40;99.90
2577;DHT22;1298;51.252;6.802;2023-04-06T12:18:08;13.50;99.90
2577;DHT22;1298;51.252;6.802;2023-04-06T12:20:54;13.60;99.90
2577;DHT22;1298;51.252;6.802;2023-04-06T12:23:40;13.80;99.90
2577;DHT22;1298;51.252;6.802;2023-04-06T12:26:26;13.70;99.90
2577;DHT22;1298;51.252;6.802;2023-04-06T12:29:16;13.40;99.90
2577;DHT22;1298;51.252;6.802;2023-04-06T12:32:10;13.20;99.90
2577;DHT22;1298;51.252;6.802;2023-04-06T12:34:57;13.10;99.90
2577;DHT22;1298;51.252;6.802;2023-04-06T12:37:43;13.20;99.90
2577;DHT22;1298;51.252;6.802;2023-04-06T12:40:35;13.20;99.90
2577;DHT22;1298;51.252;6.802;2023-04-06T12:43:21;13.20;99.90
2577;DHT22;1298;51.252;6.802;2023-04-06T12:46:09;13.40;99.90
2577;DHT22;1298;51.252;6.802;2023-04-06T12:48:56;13.50;99.90
2577;DHT22;1298;51.252;6.802;2023-04-06T12:51:45;13.30;99.90
2577;DHT22;1298;51.252;6.802;2023-04-06T12:54:39;13.30;99.90
2577;DHT22;1298;51.252;6.802;2023-04-06T12:57:27;13.40;99.90
2577;DHT22;1298;51.252;6.802;2023-04-06T13:00:14;13.30;99.90
2577;DHT22;1298;51.252;6.802;2023-04-06T13:03:02;13.20;99.90
2577;DHT22;1298;51.252;6.802;2023-04-06T13:05:51;13.10;99.90
2577;DHT22;1298;51.252;6.802;2023-04-06T13:08:50;13.20;99.90
2577;DHT22;1298;51.252;6.802;2023-04-06T13:11:43;13.00;99.90
2577;DHT22;1298;51.252;6.802;2023-04-06T13:14:31;13.00;99.90
2577;DHT22;1298;51.252;6.802;2023-04-06T13:17:16;12.80;99.90
2577;DHT22;1298;51.252;6.802;2023-04-06T13:20:06;12.50;99.90
2577;DHT22;1298;51.252;6.802;2023-04-06T13:23:10;12.50;99.90
2577;DHT22;1298;51.252;6.802;2023-04-06T13:26:12;12.60;99.90
2577;DHT22;1298;51.252;6.802;2023-04-06T13:29:07;12.80;99.90
2577;DHT22;1298;51.252;6.802;2023-04-06T13:31:53;12.90;99.90
2577;DHT22;1298;51.252;6.802;2023-04-06T13:34:40;13.00;99.90
2577;DHT22;1298;51.252;6.802;2023-04-06T13:37:31;12.90;99.90
2577;DHT22;1298;51.252;6.802;2023-04-06T13:40:29;12.80;99.90
2577;DHT22;1298;51.252;6.802;2023-04-06T13:43:17;12.50;99.90
2577;DHT22;1298;51.252;6.802;2023-04-06T13:46:04;12.20;99.90
2577;DHT22;1298;51.252;6.802;2023-04-06T13:49:03;12.30;99.90
2577;DHT22;1298;51.252;6.802;2023-04-06T13:51:49;12.40;99.90
2577;DHT22;1298;51.252;6.802;2023-04-06T13:54:36;12.20;99.90
2577;DHT22;1298;51.252;6.802;2023-04-06T13:57:22;12.30;99.90
2577;DHT22;1298;51.252;6.802;2023-04-06T14:00:10;12.30;99.90
2577;DHT22;1298;51.252;6.802;2023-04-06T14:02:57;12.30;99.90
2577;DHT22;1298;51.252;6.802;2023-04-06T14:05:44;11.80;99.90
2577;DHT22;1298;51.252;6.802;2023-04-06T14:08:31;11.50;99.90
2577;DHT22;1298;51.252;6.802;2023-04-06T14:11:24;11.60;99.90
2577;DHT22;1298;51.252;6.802;2023-04-06T14:14:16;11.80;99.90
2577;DHT22;1298;51.252;6.802;2023-04-06T14:17:30;11.90;99.90
2577;DHT22;1298;51.252;6.802;2023-04-06T14:20:32;12.00;99.90
2577;DHT22;1298;51.252;6.802;2023-04-06T14:23:17;12.10;99.90
2577;DHT22;1298;51.252;6.802;2023-04-06T14:26:06;12.10;99.90
2577;DHT22;1298;51.252;6.802;2023-04-06T14:28:52;12.20;99.90
2577;DHT22;1298;51.252;6.802;2023-04-06T14:31:38;12.20;99.90
2577;DHT22;1298;51.252;6.802;2023-04-06T14:34:25;12.00;99.90
2577;DHT22;1298;51.252;6.802;2023-04-06T14:37:13;11.70;99.90
2577;DHT22;1298;51.252;6.802;2023-04-06T14:40:04;11.70;99.90
2577;DHT22;1298;51.252;6.802;2023-04-06T14:42:57;11.60;99.90
2577;DHT22;1298;51.252;6.802;2023-04-06T14:45:45;11.40;99.90
2577;DHT22;1298;51.252;6.802;2023-04-06T14:48:30;11.30;99.90
2577;DHT22;1298;51.252;6.802;2023-04-06T14:51:25;11.30;99.90
2577;DHT22;1298;51.252;6.802;2023-04-06T14:54:20;11.20;99.90
2577;DHT22;1298;51.252;6.802;2023-04-06T14:57:21;11.20;99.90
2577;DHT22;1298;51.252;6.802;2023-04-06T15:00:25;11.00;99.90
2577;DHT22;1298;51.252;6.802;2023-04-06T15:03:13;10.90;99.90
2577;DHT22;1298;51.252;6.802;2023-04-06T15:06:00;10.80;99.90
2577;DHT22;1298;51.252;6.802;2023-04-06T15:08:51;10.60;99.90
2577;DHT22;1298;51.252;6.802;2023-04-06T15:11:44;10.60;99.90
2577;DHT22;1298;51.252;6.802;2023-04-06T15:14:37;10.70;99.90
2577;DHT22;1298;51.252;6.802;2023-04-06T15:17:36;10.60;99.90
2577;DHT22;1298;51.252;6.802;2023-04-06T15:20:33;10.40;99.90
2577;DHT22;1298;51.252;6.802;2023-04-06T15:23:34;10.30;99.90
2577;DHT22;1298;51.252;6.802;2023-04-06T15:26:23;10.30;99.90
2577;DHT22;1298;51.252;6.802;2023-04-06T15:29:25;10.30;99.90
2577;DHT22;1298;51.252;6.802;2023-04-06T15:32:21;10.30;99.90
2577;DHT22;1298;51.252;6.802;2023-04-06T15:35:11;10.30;99.90
2577;DHT22;1298;51.252;6.802;2023-04-06T15:38:25;10.30;99.90
2577;DHT22;1298;51.252;6.802;2023-04-06T15:41:22;10.20;99.90
2577;DHT22;1298;51.252;6.802;2023-04-06T15:44:14;10.10;99.90
2577;DHT22;1298;51.252;6.802;2023-04-06T15:47:10;10.10;99.90
2577;DHT22;1298;51.252;6.802;2023-04-06T15:49:56;10.00;99.90
2577;DHT22;1298;51.252;6.802;2023-04-06T15:52:44;10.00;99.90
2577;DHT22;1298;51.252;6.802;2023-04-06T15:55:54;10.00;99.90
2577;DHT22;1298;51.252;6.802;2023-04-06T15:58:58;9.90;99.90
2577;DHT22;1298;51.252;6.802;2023-04-06T16:01:44;9.70;99.90
2577;DHT22;1298;51.252;6.802;2023-04-06T16:04:32;9.70;99.90
2577;DHT22;1298;51.252;6.802;2023-04-06T16:07:41;9.50;99.90
2577;DHT22;1298;51.252;6.802;2023-04-06T16:10:27;9.50;99.90
2577;DHT22;1298;51.252;6.802;2023-04-06T16:13:13;9.50;99.90
2577;DHT22;1298;51.252;6.802;2023-04-06T16:16:08;9.50;99.90
2577;DHT22;1298;51.252;6.802;2023-04-06T16:18:55;9.50;99.90
2577;DHT22;1298;51.252;6.802;2023-04-06T16:21:40;9.50;99.90
2577;DHT22;1298;51.252;6.802;2023-04-06T16:25:10;9.50;99.90
2577;DHT22;1298;51.252;6.802;2023-04-06T16:28:09;9.50;99.90
2577;DHT22;1298;51.252;6.802;2023-04-06T16:30:57;9.50;99.90
2577;DHT22;1298;51.252;6.802;2023-04-06T16:33:51;9.40;99.90
2577;DHT22;1298;51.252;6.802;2023-04-06T16:36:39;9.40;99.90
2577;DHT22;1298;51.252;6.802;2023-04-06T16:39:43;9.40;99.90
2577;DHT22;1298;51.252;6.802;2023-04-06T16:42:33;9.30;99.90
2577;DHT22;1298;51.252;6.802;2023-04-06T16:45:48;9.30;99.90
2577;DHT22;1298;51.252;6.802;2023-04-06T16:48:38;9.20;99.90
2577;DHT22;1298;51.252;6.802;2023-04-06T16:51:41;9.20;99.90
2577;DHT22;1298;51.252;6.802;2023-04-06T16:54:26;9.20;99.90
2577;DHT22;1298;51.252;6.802;2023-04-06T16:57:22;9.10;99.90
2577;DHT22;1298;51.252;6.802;2023-04-06T17:00:19;9.00;99.90
2577;DHT22;1298;51.252;6.802;2023-04-06T17:03:04;9.00;99.90
2577;DHT22;1298;51.252;6.802;2023-04-06T17:05:55;8.90;99.90
2577;DHT22;1298;51.252;6.802;2023-04-06T17:08:49;8.90;99.90
2577;DHT22;1298;51.252;6.802;2023-04-06T17:11:43;8.90;99.90
2577;DHT22;1298;51.252;6.802;2023-04-06T17:14:29;8.90;99.90
2577;DHT22;1298;51.252;6.802;2023-04-06T17:17:22;8.80;99.90
2577;DHT22;1298;51.252;6.802;2023-04-06T17:20:17;8.70;99.90
2577;DHT22;1298;51.252;6.802;2023-04-06T17:23:05;8.70;99.90
2577;DHT22;1298;51.252;6.802;2023-04-06T17:25:52;8.70;99.90
2577;DHT22;1298;51.252;6.802;2023-04-06T17:28:42;8.60;99.90
2577;DHT22;1298;51.252;6.802;2023-04-06T17:31:30;8.60;99.90
2577;DHT22;1298;51.252;6.802;2023-04-06T17:34:19;8.60;99.90
2577;DHT22;1298;51.252;6.802;2023-04-06T17:37:32;8.60;99.90
2577;DHT22;1298;51.252;6.802;2023-04-06T17:40:18;8.60;99.90
2577;DHT22;1298;51.252;6.802;2023-04-06T17:43:06;8.60;99.90
2577;DHT22;1298;51.252;6.802;2023-04-06T17:46:13;8.60;99.90
2577;DHT22;1298;51.252;6.802;2023-04-06T17:49:00;8.50;99.90
2577;DHT22;1298;51.252;6.802;2023-04-06T17:51:53;8.50;99.90
2577;DHT22;1298;51.252;6.802;2023-04-06T17:54:39;8.50;99.90
2577;DHT22;1298;51.252;6.802;2023-04-06T17:57:25;8.50;99.90
2577;DHT22;1298;51.252;6.802;2023-04-06T18:00:15;8.50;99.90
2577;DHT22;1298;51.252;6.802;2023-04-06T18:03:11;8.40;99.90
2577;DHT22;1298;51.252;6.802;2023-04-06T18:06:28;8.40;99.90
2577;DHT22;1298;51.252;6.802;2023-04-06T18:09:18;8.40;99.90
2577;DHT22;1298;51.252;6.802;2023-04-06T18:12:04;8.30;99.90
2577;DHT22;1298;51.252;6.802;2023-04-06T18:14:54;8.30;99.90
2577;DHT22;1298;51.252;6.802;2023-04-06T18:17:42;8.30;99.90
2577;DHT22;1298;51.252;6.802;2023-04-06T18:20:31;8.30;99.90
2577;DHT22;1298;51.252;6.802;2023-04-06T18:23:23;8.30;99.90
2577;DHT22;1298;51.252;6.802;2023-04-06T18:26:16;8.30;99.90
2577;DHT22;1298;51.252;6.802;2023-04-06T18:29:02;8.30;99.90
2577;DHT22;1298;51.252;6.802;2023-04-06T18:31:52;8.30;99.90
2577;DHT22;1298;51.252;6.802;2023-04-06T18:34:39;8.20;99.90
2577;DHT22;1298;51.252;6.802;2023-04-06T18:37:29;8.20;99.90
2577;DHT22;1298;51.252;6.802;2023-04-06T18:40:39;8.20;99.90
2577;DHT22;1298;51.252;6.802;2023-04-06T18:44:05;8.10;99.90
2577;DHT22;1298;51.252;6.802;2023-04-06T18:46:57;8.00;99.90
2577;DHT22;1298;51.252;6.802;2023-04-06T18:49:58;8.00;99.90
2577;DHT22;1298;51.252;6.802;2023-04-06T18:52:46;8.00;99.90
2577;DHT22;1298;51.252;6.802;2023-04-06T18:55:31;8.00;99.90
2577;DHT22;1298;51.252;6.802;2023-04-06T18:58:26;7.90;99.90
2577;DHT22;1298;51.252;6.802;2023-04-06T19:01:21;7.90;99.90
2577;DHT22;1298;51.252;6.802;2023-04-06T19:05:08;7.90;99.90
2577;DHT22;1298;51.252;6.802;2023-04-06T19:08:15;7.90;99.90
2577;DHT22;1298;51.252;6.802;2023-04-06T19:11:17;7.90;99.90
2577;DHT22;1298;51.252;6.802;2023-04-06T19:14:07;7.90;99.90
2577;DHT22;1298;51.252;6.802;2023-04-06T19:16:54;7.90;99.90
2577;DHT22;1298;51.252;6.802;2023-04-06T19:19:56;7.90;99.90
2577;DHT22;1298;51.252;6.802;2023-04-06T19:24:02;7.80;99.90
2577;DHT22;1298;51.252;6.802;2023-04-06T19:27:08;7.80;99.90
2577;DHT22;1298;51.252;6.802;2023-04-06T19:29:59;7.80;99.90
2577;DHT22;1298;51.252;6.802;2023-04-06T19:32:49;7.80;99.90
2577;DHT22;1298;51.252;6.802;2023-04-06T19:35:35;7.80;99.90
2577;DHT22;1298;51.252;6.802;2023-04-06T19:38:23;7.80;99.90
2577;DHT22;1298;51.252;6.802;2023-04-06T19:41:16;7.80;99.90
2577;DHT22;1298;51.252;6.802;2023-04-06T19:44:11;7.80;99.90
2577;DHT22;1298;51.252;6.802;2023-04-06T19:47:18;7.80;99.90
2577;DHT22;1298;51.252;6.802;2023-04-06T19:50:21;7.80;99.90